sensor_id;sensor_type;location;lat;lon;timestamp;temperature;humidity
63051;SHT30;49136;47.416;19.402;2024-03-22T00:01:40;7.81;85.35
63051;SHT30;49136;47.416;19.402;2024-03-22T00:04:06;7.76;86.50
63051;SHT30;49136;47.416;19.402;2024-03-22T00:06:34;7.75;86.49
63051;SHT30;49136;47.416;19.402;2024-03-22T00:08:59;7.68;86.67
63051;SHT30;49136;47.416;19.402;2024-03-22T00:11:24;7.65;86.91
63051;SHT30;49136;47.416;19.402;2024-03-22T00:13:50;7.61;86.60
63051;SHT30;49136;47.416;19.402;2024-03-22T00:16:16;7.62;86.76
63051;SHT30;49136;47.416;19.402;2024-03-22T00:18:41;7.62;86.57
63051;SHT30;49136;47.416;19.402;2024-03-22T00:21:07;7.51;86.56
63051;SHT30;49136;47.416;19.402;2024-03-22T00:23:32;7.46;86.49
63051;SHT30;49136;47.416;19.402;2024-03-22T00:25:58;7.40;86.55
63051;SHT30;49136;47.416;19.402;2024-03-22T00:28:23;7.35;87.94
63051;SHT30;49136;47.416;19.402;2024-03-22T00:30:48;7.30;87.63
63051;SHT30;49136;47.416;19.402;2024-03-22T00:33:14;7.24;87.58
63051;SHT30;49136;47.416;19.402;2024-03-22T00:35:39;7.22;87.05
63051;SHT30;49136;47.416;19.402;2024-03-22T00:38:05;7.15;85.07
63051;SHT30;49136;47.416;19.402;2024-03-22T00:40:30;7.06;86.63
63051;SHT30;49136;47.416;19.402;2024-03-22T00:42:55;7.13;86.57
63051;SHT30;49136;47.416;19.402;2024-03-22T00:45:21;7.05;87.32
63051;SHT30;49136;47.416;19.402;2024-03-22T00:47:46;6.88;86.97
63051;SHT30;49136;47.416;19.402;2024-03-22T00:50:12;6.82;87.14
63051;SHT30;49136;47.416;19.402;2024-03-22T00:52:38;6.80;87.12
63051;SHT30;49136;47.416;19.402;2024-03-22T00:55:04;6.64;86.55
63051;SHT30;49136;47.416;19.402;2024-03-22T00:57:30;6.54;86.16
63051;SHT30;49136;47.416;19.402;2024-03-22T00:59:56;6.51;86.12
63051;SHT30;49136;47.416;19.402;2024-03-22T01:02:21;6.39;87.40
63051;SHT30;49136;47.416;19.402;2024-03-22T01:04:48;6.25;88.41
63051;SHT30;49136;47.416;19.402;2024-03-22T01:07:13;6.36;88.66
63051;SHT30;49136;47.416;19.402;2024-03-22T01:09:38;6.28;88.05
63051;SHT30;49136;47.416;19.402;2024-03-22T01:12:04;6.16;88.47
63051;SHT30;49136;47.416;19.402;2024-03-22T01:14:30;6.12;88.70
63051;SHT30;49136;47.416;19.402;2024-03-22T01:16:55;6.12;88.30
63051;SHT30;49136;47.416;19.402;2024-03-22T01:19:21;6.25;87.98
63051;SHT30;49136;47.416;19.402;2024-03-22T01:21:48;6.09;88.19
63051;SHT30;49136;47.416;19.402;2024-03-22T01:24:13;5.97;89.32
63051;SHT30;49136;47.416;19.402;2024-03-22T01:26:39;5.88;89.47
63051;SHT30;49136;47.416;19.402;2024-03-22T01:29:04;5.90;89.35
63051;SHT30;49136;47.416;19.402;2024-03-22T01:31:29;5.81;89.39
63051;SHT30;49136;47.416;19.402;2024-03-22T01:33:55;5.78;89.66
63051;SHT30;49136;47.416;19.402;2024-03-22T01:36:20;5.77;89.62
63051;SHT30;49136;47.416;19.402;2024-03-22T01:38:46;5.74;89.71
63051;SHT30;49136;47.416;19.402;2024-03-22T01:41:11;5.75;90.20
63051;SHT30;49136;47.416;19.402;2024-03-22T01:43:36;5.81;90.48
63051;SHT30;49136;47.416;19.402;2024-03-22T01:46:02;5.87;90.11
63051;SHT30;49136;47.416;19.402;2024-03-22T01:48:28;5.90;90.10
63051;SHT30;49136;47.416;19.402;2024-03-22T01:50:53;5.90;90.01
63051;SHT30;49136;47.416;19.402;2024-03-22T01:53:19;5.94;90.14
63051;SHT30;49136;47.416;19.402;2024-03-22T01:55:44;5.95;89.76
63051;SHT30;49136;47.416;19.402;2024-03-22T01:58:11;5.94;89.72
63051;SHT30;49136;47.416;19.402;2024-03-22T02:00:37;5.99;89.91
63051;SHT30;49136;47.416;19.402;2024-03-22T02:03:03;6.04;89.40
63051;SHT30;49136;47.416;19.402;2024-03-22T02:05:28;6.08;88.93
63051;SHT30;49136;47.416;19.402;2024-03-22T02:07:54;6.09;89.36
63051;SHT30;49136;47.416;19.402;2024-03-22T02:10:19;6.11;89.60
63051;SHT30;49136;47.416;19.402;2024-03-22T02:12:45;6.18;89.11
63051;SHT30;49136;47.416;19.402;2024-03-22T02:15:11;6.29;88.36
63051;SHT30;49136;47.416;19.402;2024-03-22T02:17:36;6.32;88.18
63051;SHT30;49136;47.416;19.402;2024-03-22T02:20:02;6.28;88.49
63051;SHT30;49136;47.416;19.402;2024-03-22T02:22:29;6.29;89.55
63051;SHT30;49136;47.416;19.402;2024-03-22T02:24:55;6.29;89.79
63051;SHT30;49136;47.416;19.402;2024-03-22T02:27:20;6.26;89.85
63051;SHT30;49136;47.416;19.402;2024-03-22T02:29:46;6.29;90.30
63051;SHT30;49136;47.416;19.402;2024-03-22T02:32:11;6.29;90.41
63051;SHT30;49136;47.416;19.402;2024-03-22T02:34:37;6.33;89.89
63051;SHT30;49136;47.416;19.402;2024-03-22T02:37:02;6.34;90.00
63051;SHT30;49136;47.416;19.402;2024-03-22T02:39:28;6.37;89.91
63051;SHT30;49136;47.416;19.402;2024-03-22T02:41:54;6.37;90.15
63051;SHT30;49136;47.416;19.402;2024-03-22T02:44:19;6.41;90.44
63051;SHT30;49136;47.416;19.402;2024-03-22T02:46:45;6.49;90.11
63051;SHT30;49136;47.416;19.402;2024-03-22T02:49:10;6.43;89.80
63051;SHT30;49136;47.416;19.402;2024-03-22T02:51:35;6.50;89.86
63051;SHT30;49136;47.416;19.402;2024-03-22T02:54:01;6.50;90.23
63051;SHT30;49136;47.416;19.402;2024-03-22T02:56:27;6.49;89.83
63051;SHT30;49136;47.416;19.402;2024-03-22T02:58:53;6.49;90.58
63051;SHT30;49136;47.416;19.402;2024-03-22T03:01:18;6.47;90.22
63051;SHT30;49136;47.416;19.402;2024-03-22T03:03:43;6.47;90.64
63051;SHT30;49136;47.416;19.402;2024-03-22T03:06:09;6.44;91.45
63051;SHT30;49136;47.416;19.402;2024-03-22T03:08:35;6.43;91.44
63051;SHT30;49136;47.416;19.402;2024-03-22T03:11:00;6.44;90.98
63051;SHT30;49136;47.416;19.402;2024-03-22T03:13:26;6.47;91.70
63051;SHT30;49136;47.416;19.402;2024-03-22T03:15:51;6.47;91.57
63051;SHT30;49136;47.416;19.402;2024-03-22T03:18:16;6.57;91.33
63051;SHT30;49136;47.416;19.402;2024-03-22T03:20:42;6.56;91.34
63051;SHT30;49136;47.416;19.402;2024-03-22T03:23:08;6.61;91.28
63051;SHT30;49136;47.416;19.402;2024-03-22T03:25:33;6.64;90.63
63051;SHT30;49136;47.416;19.402;2024-03-22T03:27:59;6.67;90.35
63051;SHT30;49136;47.416;19.402;2024-03-22T03:30:24;6.70;90.38
63051;SHT30;49136;47.416;19.402;2024-03-22T03:32:49;6.93;90.01
63051;SHT30;49136;47.416;19.402;2024-03-22T03:35:15;6.96;89.49
63051;SHT30;49136;47.416;19.402;2024-03-22T03:37:40;6.89;89.79
63051;SHT30;49136;47.416;19.402;2024-03-22T03:40:06;6.87;90.71
63051;SHT30;49136;47.416;19.402;2024-03-22T03:42:32;6.80;91.31
63051;SHT30;49136;47.416;19.402;2024-03-22T03:44:57;6.74;91.42
63051;SHT30;49136;47.416;19.402;2024-03-22T03:47:23;6.73;91.24
63051;SHT30;49136;47.416;19.402;2024-03-22T03:49:48;6.68;91.89
63051;SHT30;49136;47.416;19.402;2024-03-22T03:52:14;6.67;92.01
63051;SHT30;49136;47.416;19.402;2024-03-22T03:54:39;6.70;91.64
63051;SHT30;49136;47.416;19.402;2024-03-22T03:57:05;6.74;91.46
63051;SHT30;49136;47.416;19.402;2024-03-22T03:59:30;6.73;91.77
63051;SHT30;49136;47.416;19.402;2024-03-22T04:01:56;6.87;91.36
63051;SHT30;49136;47.416;19.402;2024-03-22T04:04:21;6.78;91.27
63051;SHT30;49136;47.416;19.402;2024-03-22T04:06:47;6.74;92.13
63051;SHT30;49136;47.416;19.402;2024-03-22T04:09:13;6.68;92.32
63051;SHT30;49136;47.416;19.402;2024-03-22T04:11:38;6.70;92.66
63051;SHT30;49136;47.416;19.402;2024-03-22T04:14:04;6.73;92.82
63051;SHT30;49136;47.416;19.402;2024-03-22T04:16:30;6.75;92.22
63051;SHT30;49136;47.416;19.402;2024-03-22T04:18:56;6.77;92.41
63051;SHT30;49136;47.416;19.402;2024-03-22T04:21:21;6.75;92.30
63051;SHT30;49136;47.416;19.402;2024-03-22T04:23:47;6.77;91.56
63051;SHT30;49136;47.416;19.402;2024-03-22T04:26:12;6.78;91.36
63051;SHT30;49136;47.416;19.402;2024-03-22T04:28:37;6.85;91.33
63051;SHT30;49136;47.416;19.402;2024-03-22T04:31:05;6.93;91.23
63051;SHT30;49136;47.416;19.402;2024-03-22T04:33:32;6.92;91.38
63051;SHT30;49136;47.416;19.402;2024-03-22T04:35:59;6.89;91.58
63051;SHT30;49136;47.416;19.402;2024-03-22T04:38:25;6.84;92.31
63051;SHT30;49136;47.416;19.402;2024-03-22T04:40:51;6.92;92.06
63051;SHT30;49136;47.416;19.402;2024-03-22T04:43:17;6.91;91.92
63051;SHT30;49136;47.416;19.402;2024-03-22T04:45:43;6.89;92.14
63051;SHT30;49136;47.416;19.402;2024-03-22T04:48:09;6.88;91.87
63051;SHT30;49136;47.416;19.402;2024-03-22T04:50:35;6.85;92.18
63051;SHT30;49136;47.416;19.402;2024-03-22T04:53:01;6.85;92.37
63051;SHT30;49136;47.416;19.402;2024-03-22T04:55:26;6.98;92.21
63051;SHT30;49136;47.416;19.402;2024-03-22T04:57:52;6.93;91.94
63051;SHT30;49136;47.416;19.402;2024-03-22T05:00:17;6.95;92.65
63051;SHT30;49136;47.416;19.402;2024-03-22T05:02:43;6.93;92.51
63051;SHT30;49136;47.416;19.402;2024-03-22T05:05:08;6.95;92.20
63051;SHT30;49136;47.416;19.402;2024-03-22T05:07:34;7.09;91.40
63051;SHT30;49136;47.416;19.402;2024-03-22T05:09:59;7.16;90.69
63051;SHT30;49136;47.416;19.402;2024-03-22T05:12:25;7.17;90.87
63051;SHT30;49136;47.416;19.402;2024-03-22T05:14:50;7.16;91.13
63051;SHT30;49136;47.416;19.402;2024-03-22T05:17:15;7.19;90.87
63051;SHT30;49136;47.416;19.402;2024-03-22T05:19:41;7.26;90.28
63051;SHT30;49136;47.416;19.402;2024-03-22T05:22:06;7.24;90.28
63051;SHT30;49136;47.416;19.402;2024-03-22T05:24:32;7.24;90.75
63051;SHT30;49136;47.416;19.402;2024-03-22T05:26:58;7.33;90.66
63051;SHT30;49136;47.416;19.402;2024-03-22T05:29:24;7.38;90.57
63051;SHT30;49136;47.416;19.402;2024-03-22T05:31:51;7.38;90.42
63051;SHT30;49136;47.416;19.402;2024-03-22T05:34:17;7.43;90.99
63051;SHT30;49136;47.416;19.402;2024-03-22T05:36:43;7.44;91.04
63051;SHT30;49136;47.416;19.402;2024-03-22T05:39:09;7.47;90.60
63051;SHT30;49136;47.416;19.402;2024-03-22T05:41:36;7.55;90.32
63051;SHT30;49136;47.416;19.402;2024-03-22T05:44:02;7.61;90.75
63051;SHT30;49136;47.416;19.402;2024-03-22T05:46:28;7.64;91.28
63051;SHT30;49136;47.416;19.402;2024-03-22T05:48:54;7.71;90.39
63051;SHT30;49136;47.416;19.402;2024-03-22T05:51:19;7.78;89.72
63051;SHT30;49136;47.416;19.402;2024-03-22T05:53:45;7.87;89.37
63051;SHT30;49136;47.416;19.402;2024-03-22T05:56:10;7.90;89.13
63051;SHT30;49136;47.416;19.402;2024-03-22T05:58:35;7.99;88.74
63051;SHT30;49136;47.416;19.402;2024-03-22T06:01:05;8.04;89.31
63051;SHT30;49136;47.416;19.402;2024-03-22T06:03:30;8.09;89.25
63051;SHT30;49136;47.416;19.402;2024-03-22T06:05:56;8.14;90.96
63051;SHT30;49136;47.416;19.402;2024-03-22T06:08:25;8.14;91.10
63051;SHT30;49136;47.416;19.402;2024-03-22T06:10:52;8.19;90.73
63051;SHT30;49136;47.416;19.402;2024-03-22T06:13:17;8.30;90.52
63051;SHT30;49136;47.416;19.402;2024-03-22T06:15:43;8.45;90.21
63051;SHT30;49136;47.416;19.402;2024-03-22T06:18:11;8.61;91.00
63051;SHT30;49136;47.416;19.402;2024-03-22T06:20:36;8.76;91.29
63051;SHT30;49136;47.416;19.402;2024-03-22T06:23:02;8.93;89.39
63051;SHT30;49136;47.416;19.402;2024-03-22T06:25:27;9.20;89.39
63051;SHT30;49136;47.416;19.402;2024-03-22T06:27:52;9.35;90.62
63051;SHT30;49136;47.416;19.402;2024-03-22T06:30:18;9.42;88.46
63051;SHT30;49136;47.416;19.402;2024-03-22T06:32:43;9.53;87.24
63051;SHT30;49136;47.416;19.402;2024-03-22T06:35:09;9.69;88.01
63051;SHT30;49136;47.416;19.402;2024-03-22T06:37:37;9.79;88.02
63051;SHT30;49136;47.416;19.402;2024-03-22T06:40:03;9.86;86.85
63051;SHT30;49136;47.416;19.402;2024-03-22T06:42:28;9.95;86.65
63051;SHT30;49136;47.416;19.402;2024-03-22T06:44:53;10.04;86.69
63051;SHT30;49136;47.416;19.402;2024-03-22T06:47:19;10.11;86.98
63051;SHT30;49136;47.416;19.402;2024-03-22T06:49:46;10.26;86.35
63051;SHT30;49136;47.416;19.402;2024-03-22T06:52:11;10.42;85.67
63051;SHT30;49136;47.416;19.402;2024-03-22T06:54:37;10.63;85.22
63051;SHT30;49136;47.416;19.402;2024-03-22T06:57:02;10.52;82.62
63051;SHT30;49136;47.416;19.402;2024-03-22T06:59:28;10.80;83.14
63051;SHT30;49136;47.416;19.402;2024-03-22T07:01:53;11.30;83.12
63051;SHT30;49136;47.416;19.402;2024-03-22T07:04:18;11.81;81.80
63051;SHT30;49136;47.416;19.402;2024-03-22T07:06:44;12.41;80.00
63051;SHT30;49136;47.416;19.402;2024-03-22T07:09:09;12.91;78.45
63051;SHT30;49136;47.416;19.402;2024-03-22T07:11:34;12.93;77.54
63051;SHT30;49136;47.416;19.402;2024-03-22T07:14:00;13.06;77.24
63051;SHT30;49136;47.416;19.402;2024-03-22T07:16:25;13.41;77.51
63051;SHT30;49136;47.416;19.402;2024-03-22T07:18:50;13.80;77.67
63051;SHT30;49136;47.416;19.402;2024-03-22T07:21:16;14.38;75.14
63051;SHT30;49136;47.416;19.402;2024-03-22T07:23:41;14.90;74.90
63051;SHT30;49136;47.416;19.402;2024-03-22T07:26:07;15.10;73.77
63051;SHT30;49136;47.416;19.402;2024-03-22T07:28:33;15.32;73.99
63051;SHT30;49136;47.416;19.402;2024-03-22T07:30:59;15.41;74.39
63051;SHT30;49136;47.416;19.402;2024-03-22T07:33:24;15.39;74.93
63051;SHT30;49136;47.416;19.402;2024-03-22T07:35:50;14.84;73.97
63051;SHT30;49136;47.416;19.402;2024-03-22T07:38:15;14.99;75.81
63051;SHT30;49136;47.416;19.402;2024-03-22T07:40:41;15.06;76.18
63051;SHT30;49136;47.416;19.402;2024-03-22T07:43:06;15.15;75.48
63051;SHT30;49136;47.416;19.402;2024-03-22T07:45:34;15.08;75.83
63051;SHT30;49136;47.416;19.402;2024-03-22T07:47:59;15.27;75.85
63051;SHT30;49136;47.416;19.402;2024-03-22T07:50:25;15.18;75.21
63051;SHT30;49136;47.416;19.402;2024-03-22T07:52:50;15.25;75.97
63051;SHT30;49136;47.416;19.402;2024-03-22T07:55:16;15.31;75.14
63051;SHT30;49136;47.416;19.402;2024-03-22T07:57:42;15.45;74.82
63051;SHT30;49136;47.416;19.402;2024-03-22T08:00:08;15.63;74.62
63051;SHT30;49136;47.416;19.402;2024-03-22T08:02:34;15.46;74.82
63051;SHT30;49136;47.416;19.402;2024-03-22T08:05:00;15.21;75.20
63051;SHT30;49136;47.416;19.402;2024-03-22T08:07:26;15.03;76.34
63051;SHT30;49136;47.416;19.402;2024-03-22T08:09:52;15.24;75.84
63051;SHT30;49136;47.416;19.402;2024-03-22T08:12:17;15.21;75.30
63051;SHT30;49136;47.416;19.402;2024-03-22T08:14:44;15.15;76.25
63051;SHT30;49136;47.416;19.402;2024-03-22T08:17:10;15.07;76.27
63051;SHT30;49136;47.416;19.402;2024-03-22T08:19:37;14.93;77.02
63051;SHT30;49136;47.416;19.402;2024-03-22T08:22:03;14.59;76.72
63051;SHT30;49136;47.416;19.402;2024-03-22T08:24:29;14.30;77.70
63051;SHT30;49136;47.416;19.402;2024-03-22T08:26:54;14.23;77.21
63051;SHT30;49136;47.416;19.402;2024-03-22T08:29:21;14.16;78.19
63051;SHT30;49136;47.416;19.402;2024-03-22T08:31:46;14.13;78.08
63051;SHT30;49136;47.416;19.402;2024-03-22T08:34:11;13.99;78.41
63051;SHT30;49136;47.416;19.402;2024-03-22T08:36:37;13.93;78.58
63051;SHT30;49136;47.416;19.402;2024-03-22T08:39:02;13.90;78.57
63051;SHT30;49136;47.416;19.402;2024-03-22T08:41:28;14.00;78.74
63051;SHT30;49136;47.416;19.402;2024-03-22T08:43:53;14.03;78.55
63051;SHT30;49136;47.416;19.402;2024-03-22T08:46:19;14.20;78.93
63051;SHT30;49136;47.416;19.402;2024-03-22T08:48:46;14.28;79.25
63051;SHT30;49136;47.416;19.402;2024-03-22T08:51:12;14.27;78.80
63051;SHT30;49136;47.416;19.402;2024-03-22T08:53:37;14.32;79.43
63051;SHT30;49136;47.416;19.402;2024-03-22T08:56:03;14.39;78.86
63051;SHT30;49136;47.416;19.402;2024-03-22T08:58:28;14.39;78.98
63051;SHT30;49136;47.416;19.402;2024-03-22T09:00:54;14.55;78.41
63051;SHT30;49136;47.416;19.402;2024-03-22T09:03:20;14.66;78.55
63051;SHT30;49136;47.416;19.402;2024-03-22T09:05:46;14.82;77.31
63051;SHT30;49136;47.416;19.402;2024-03-22T09:08:11;14.86;78.53
63051;SHT30;49136;47.416;19.402;2024-03-22T09:10:37;14.87;77.72
63051;SHT30;49136;47.416;19.402;2024-03-22T09:13:02;14.61;76.74
63051;SHT30;49136;47.416;19.402;2024-03-22T09:15:28;14.86;77.15
63051;SHT30;49136;47.416;19.402;2024-03-22T09:17:53;15.12;75.79
63051;SHT30;49136;47.416;19.402;2024-03-22T09:20:19;14.91;75.93
63051;SHT30;49136;47.416;19.402;2024-03-22T09:22:44;14.91;74.83
63051;SHT30;49136;47.416;19.402;2024-03-22T09:25:10;14.82;75.18
63051;SHT30;49136;47.416;19.402;2024-03-22T09:27:35;15.21;74.86
63051;SHT30;49136;47.416;19.402;2024-03-22T09:30:00;15.50;74.40
63051;SHT30;49136;47.416;19.402;2024-03-22T09:32:27;15.42;73.52
63051;SHT30;49136;47.416;19.402;2024-03-22T09:34:52;15.34;73.83
63051;SHT30;49136;47.416;19.402;2024-03-22T09:37:17;16.00;72.87
63051;SHT30;49136;47.416;19.402;2024-03-22T09:39:43;16.60;72.66
63051;SHT30;49136;47.416;19.402;2024-03-22T09:42:15;16.84;71.45
63051;SHT30;49136;47.416;19.402;2024-03-22T09:44:44;17.22;69.63
63051;SHT30;49136;47.416;19.402;2024-03-22T09:47:14;17.39;71.09
63051;SHT30;49136;47.416;19.402;2024-03-22T09:49:40;17.85;69.94
63051;SHT30;49136;47.416;19.402;2024-03-22T09:52:06;17.47;68.36
63051;SHT30;49136;47.416;19.402;2024-03-22T09:54:32;17.40;68.28
63051;SHT30;49136;47.416;19.402;2024-03-22T09:56:58;17.42;69.23
63051;SHT30;49136;47.416;19.402;2024-03-22T09:59:24;17.81;69.67
63051;SHT30;49136;47.416;19.402;2024-03-22T10:01:50;18.54;69.24
63051;SHT30;49136;47.416;19.402;2024-03-22T10:04:17;19.44;68.17
63051;SHT30;49136;47.416;19.402;2024-03-22T10:06:44;19.82;65.25
63051;SHT30;49136;47.416;19.402;2024-03-22T10:09:10;19.78;64.22
63051;SHT30;49136;47.416;19.402;2024-03-22T10:11:36;19.99;63.26
63051;SHT30;49136;47.416;19.402;2024-03-22T10:14:02;20.09;64.27
63051;SHT30;49136;47.416;19.402;2024-03-22T10:16:33;20.10;63.47
63051;SHT30;49136;47.416;19.402;2024-03-22T10:18:59;19.93;64.23
63051;SHT30;49136;47.416;19.402;2024-03-22T10:21:24;19.89;64.17
63051;SHT30;49136;47.416;19.402;2024-03-22T10:23:50;19.96;63.21
63051;SHT30;49136;47.416;19.402;2024-03-22T10:26:17;19.92;63.86
63051;SHT30;49136;47.416;19.402;2024-03-22T10:28:46;20.01;64.04
63051;SHT30;49136;47.416;19.402;2024-03-22T10:31:12;19.92;63.54
63051;SHT30;49136;47.416;19.402;2024-03-22T10:33:38;19.89;62.60
63051;SHT30;49136;47.416;19.402;2024-03-22T10:36:06;19.30;63.75
63051;SHT30;49136;47.416;19.402;2024-03-22T10:38:32;18.82;64.37
63051;SHT30;49136;47.416;19.402;2024-03-22T10:40:59;19.47;64.78
63051;SHT30;49136;47.416;19.402;2024-03-22T10:43:25;19.83;63.85
63051;SHT30;49136;47.416;19.402;2024-03-22T10:45:52;20.24;63.65
63051;SHT30;49136;47.416;19.402;2024-03-22T10:48:22;20.68;62.31
63051;SHT30;49136;47.416;19.402;2024-03-22T10:50:51;20.99;61.31
63051;SHT30;49136;47.416;19.402;2024-03-22T10:53:23;21.35;61.29
63051;SHT30;49136;47.416;19.402;2024-03-22T10:55:50;21.72;59.77
63051;SHT30;49136;47.416;19.402;2024-03-22T10:58:25;22.11;59.49
63051;SHT30;49136;47.416;19.402;2024-03-22T11:00:54;21.94;60.36
63051;SHT30;49136;47.416;19.402;2024-03-22T11:03:25;21.76;59.70
63051;SHT30;49136;47.416;19.402;2024-03-22T11:05:57;22.28;57.64
63051;SHT30;49136;47.416;19.402;2024-03-22T11:08:24;22.70;59.78
63051;SHT30;49136;47.416;19.402;2024-03-22T11:10:49;21.89;60.30
63051;SHT30;49136;47.416;19.402;2024-03-22T11:13:16;22.53;57.03
63051;SHT30;49136;47.416;19.402;2024-03-22T11:15:41;22.44;58.02
63051;SHT30;49136;47.416;19.402;2024-03-22T11:18:07;22.42;57.12
63051;SHT30;49136;47.416;19.402;2024-03-22T11:20:36;22.24;58.22
63051;SHT30;49136;47.416;19.402;2024-03-22T11:23:01;21.93;58.34
63051;SHT30;49136;47.416;19.402;2024-03-22T11:25:28;21.65;59.71
63051;SHT30;49136;47.416;19.402;2024-03-22T11:27:54;21.53;60.99
63051;SHT30;49136;47.416;19.402;2024-03-22T11:30:20;21.37;61.87
63051;SHT30;49136;47.416;19.402;2024-03-22T11:32:46;20.97;60.58
63051;SHT30;49136;47.416;19.402;2024-03-22T11:35:12;20.83;61.43
63051;SHT30;49136;47.416;19.402;2024-03-22T11:37:41;20.89;60.74
63051;SHT30;49136;47.416;19.402;2024-03-22T11:40:11;20.62;61.06
63051;SHT30;49136;47.416;19.402;2024-03-22T11:42:41;20.71;59.99
63051;SHT30;49136;47.416;19.402;2024-03-22T11:45:09;21.03;59.83
63051;SHT30;49136;47.416;19.402;2024-03-22T11:47:35;21.00;60.85
63051;SHT30;49136;47.416;19.402;2024-03-22T11:50:01;20.94;60.51
63051;SHT30;49136;47.416;19.402;2024-03-22T11:52:27;21.03;61.12
63051;SHT30;49136;47.416;19.402;2024-03-22T11:54:53;21.17;59.43
63051;SHT30;49136;47.416;19.402;2024-03-22T11:57:20;21.30;58.76
63051;SHT30;49136;47.416;19.402;2024-03-22T11:59:46;21.41;59.43
63051;SHT30;49136;47.416;19.402;2024-03-22T12:02:11;21.24;59.30
63051;SHT30;49136;47.416;19.402;2024-03-22T12:04:47;21.67;58.37
63051;SHT30;49136;47.416;19.402;2024-03-22T12:07:13;21.77;58.44
63051;SHT30;49136;47.416;19.402;2024-03-22T12:09:43;21.65;57.94
63051;SHT30;49136;47.416;19.402;2024-03-22T12:12:10;21.70;58.26
63051;SHT30;49136;47.416;19.402;2024-03-22T12:14:36;21.60;59.17
63051;SHT30;49136;47.416;19.402;2024-03-22T12:17:05;21.55;57.04
63051;SHT30;49136;47.416;19.402;2024-03-22T12:19:31;21.53;55.98
63051;SHT30;49136;47.416;19.402;2024-03-22T12:21:56;21.83;51.55
63051;SHT30;49136;47.416;19.402;2024-03-22T12:24:23;21.69;51.65
63051;SHT30;49136;47.416;19.402;2024-03-22T12:26:49;21.48;53.27
63051;SHT30;49136;47.416;19.402;2024-03-22T12:29:17;21.42;52.76
63051;SHT30;49136;47.416;19.402;2024-03-22T12:31:44;20.77;50.93
63051;SHT30;49136;47.416;19.402;2024-03-22T12:34:09;21.31;52.12
63051;SHT30;49136;47.416;19.402;2024-03-22T12:36:35;21.35;50.56
63051;SHT30;49136;47.416;19.402;2024-03-22T12:39:00;21.03;49.98
63051;SHT30;49136;47.416;19.402;2024-03-22T12:41:27;21.18;53.50
63051;SHT30;49136;47.416;19.402;2024-03-22T12:43:54;21.00;54.87
63051;SHT30;49136;47.416;19.402;2024-03-22T12:46:19;20.76;53.76
63051;SHT30;49136;47.416;19.402;2024-03-22T12:48:45;20.31;55.62
63051;SHT30;49136;47.416;19.402;2024-03-22T12:51:10;20.71;54.98
63051;SHT30;49136;47.416;19.402;2024-03-22T12:53:37;20.99;54.25
63051;SHT30;49136;47.416;19.402;2024-03-22T12:56:03;20.59;54.04
63051;SHT30;49136;47.416;19.402;2024-03-22T12:58:32;20.58;56.00
63051;SHT30;49136;47.416;19.402;2024-03-22T13:00:58;20.42;56.48
63051;SHT30;49136;47.416;19.402;2024-03-22T13:03:26;20.73;56.61
63051;SHT30;49136;47.416;19.402;2024-03-22T13:05:51;20.75;55.47
63051;SHT30;49136;47.416;19.402;2024-03-22T13:08:17;20.73;55.81
63051;SHT30;49136;47.416;19.402;2024-03-22T13:10:42;20.96;53.97
63051;SHT30;49136;47.416;19.402;2024-03-22T13:13:10;20.73;53.92
63051;SHT30;49136;47.416;19.402;2024-03-22T13:15:36;20.94;52.52
63051;SHT30;49136;47.416;19.402;2024-03-22T13:18:03;21.15;53.63
63051;SHT30;49136;47.416;19.402;2024-03-22T13:20:29;21.14;53.58
63051;SHT30;49136;47.416;19.402;2024-03-22T13:22:54;20.87;55.07
63051;SHT30;49136;47.416;19.402;2024-03-22T13:25:20;20.58;54.55
63051;SHT30;49136;47.416;19.402;2024-03-22T13:27:45;20.09;54.49
63051;SHT30;49136;47.416;19.402;2024-03-22T13:30:11;19.62;56.47
63051;SHT30;49136;47.416;19.402;2024-03-22T13:32:37;20.45;57.16
63051;SHT30;49136;47.416;19.402;2024-03-22T13:35:04;20.80;58.31
63051;SHT30;49136;47.416;19.402;2024-03-22T13:37:30;20.51;56.57
63051;SHT30;49136;47.416;19.402;2024-03-22T13:39:55;20.76;57.34
63051;SHT30;49136;47.416;19.402;2024-03-22T13:42:21;20.40;57.78
63051;SHT30;49136;47.416;19.402;2024-03-22T13:44:46;19.83;58.12
63051;SHT30;49136;47.416;19.402;2024-03-22T13:47:11;19.61;58.67
63051;SHT30;49136;47.416;19.402;2024-03-22T13:49:37;19.46;58.79
63051;SHT30;49136;47.416;19.402;2024-03-22T13:52:06;19.57;59.23
63051;SHT30;49136;47.416;19.402;2024-03-22T13:54:32;19.24;58.82
63051;SHT30;49136;47.416;19.402;2024-03-22T13:56:57;19.38;60.73
63051;SHT30;49136;47.416;19.402;2024-03-22T13:59:23;19.30;60.78
63051;SHT30;49136;47.416;19.402;2024-03-22T14:01:48;19.22;59.26
63051;SHT30;49136;47.416;19.402;2024-03-22T14:04:14;19.34;61.36
63051;SHT30;49136;47.416;19.402;2024-03-22T14:06:40;19.65;60.15
63051;SHT30;49136;47.416;19.402;2024-03-22T14:09:07;19.31;60.73
63051;SHT30;49136;47.416;19.402;2024-03-22T14:11:36;19.20;59.72
63051;SHT30;49136;47.416;19.402;2024-03-22T14:14:01;19.71;60.89
63051;SHT30;49136;47.416;19.402;2024-03-22T14:16:27;19.61;60.68
63051;SHT30;49136;47.416;19.402;2024-03-22T14:18:52;18.95;59.26
63051;SHT30;49136;47.416;19.402;2024-03-22T14:21:19;18.84;60.21
63051;SHT30;49136;47.416;19.402;2024-03-22T14:23:46;18.61;61.65
63051;SHT30;49136;47.416;19.402;2024-03-22T14:26:12;18.74;62.78
63051;SHT30;49136;47.416;19.402;2024-03-22T14:28:37;18.55;60.81
63051;SHT30;49136;47.416;19.402;2024-03-22T14:31:08;18.82;61.31
63051;SHT30;49136;47.416;19.402;2024-03-22T14:33:35;19.28;60.49
63051;SHT30;49136;47.416;19.402;2024-03-22T14:36:01;19.15;60.02
63051;SHT30;49136;47.416;19.402;2024-03-22T14:38:26;19.03;61.27
63051;SHT30;49136;47.416;19.402;2024-03-22T14:40:52;19.15;60.44
63051;SHT30;49136;47.416;19.402;2024-03-22T14:43:19;18.85;61.00
63051;SHT30;49136;47.416;19.402;2024-03-22T14:45:45;18.60;60.68
63051;SHT30;49136;47.416;19.402;2024-03-22T14:48:10;18.41;61.29
63051;SHT30;49136;47.416;19.402;2024-03-22T14:50:36;17.61;61.44
63051;SHT30;49136;47.416;19.402;2024-03-22T14:53:05;17.69;63.05
63051;SHT30;49136;47.416;19.402;2024-03-22T14:55:31;17.78;62.00
63051;SHT30;49136;47.416;19.402;2024-03-22T14:57:56;18.01;63.31
63051;SHT30;49136;47.416;19.402;2024-03-22T15:00:22;17.87;62.02
63051;SHT30;49136;47.416;19.402;2024-03-22T15:02:54;17.40;62.28
63051;SHT30;49136;47.416;19.402;2024-03-22T15:05:19;17.49;63.12
63051;SHT30;49136;47.416;19.402;2024-03-22T15:07:46;17.39;64.28
63051;SHT30;49136;47.416;19.402;2024-03-22T15:10:13;17.18;64.30
63051;SHT30;49136;47.416;19.402;2024-03-22T15:12:39;17.08;64.28
63051;SHT30;49136;47.416;19.402;2024-03-22T15:15:05;16.87;64.15